sensor_id;sensor_type;location;lat;lon;timestamp;P1;durP1;ratioP1;P2;durP2;ratioP2
12675;SDS011;63820;65.654;21.944;2023-03-03T00:00:51;0.30;;;0.30;;
12675;SDS011;63820;65.654;21.944;2023-03-03T00:03:36;0.30;;;0.30;;
12675;SDS011;63820;65.654;21.944;2023-03-03T00:06:20;0.67;;;0.30;;
12675;SDS011;63820;65.654;21.944;2023-03-03T00:09:04;0.57;;;0.30;;
12675;SDS011;63820;65.654;21.944;2023-03-03T00:11:49;0.30;;;0.30;;
12675;SDS011;63820;65.654;21.944;2023-03-03T00:14:39;0.50;;;0.30;;
12675;SDS011;63820;65.654;21.944;2023-03-03T00:17:27;0.77;;;0.30;;
12675;SDS011;63820;65.654;21.944;2023-03-03T00:24:01;0.97;;;0.23;;
12675;SDS011;63820;65.654;21.944;2023-03-03T00:26:22;0.30;;;0.30;;
12675;SDS011;63820;65.654;21.944;2023-03-03T00:32:21;0.23;;;0.23;;
12675;SDS011;63820;65.654;21.944;2023-03-03T00:35:43;0.20;;;0.20;;
12675;SDS011;63820;65.654;21.944;2023-03-03T00:38:22;0.30;;;0.30;;
12675;SDS011;63820;65.654;21.944;2023-03-03T00:41:40;0.20;;;0.20;;
12675;SDS011;63820;65.654;21.944;2023-03-03T00:50:32;0.67;;;0.23;;
12675;SDS011;63820;65.654;21.944;2023-03-03T00:53:17;1.07;;;0.37;;
12675;SDS011;63820;65.654;21.944;2023-03-03T00:56:03;0.83;;;0.30;;
12675;SDS011;63820;65.654;21.944;2023-03-03T00:58:48;0.87;;;0.30;;
12675;SDS011;63820;65.654;21.944;2023-03-03T01:01:32;1.27;;;0.30;;
12675;SDS011;63820;65.654;21.944;2023-03-03T01:04:16;0.50;;;0.40;;
12675;SDS011;63820;65.654;21.944;2023-03-03T01:07:00;0.20;;;0.20;;
12675;SDS011;63820;65.654;21.944;2023-03-03T01:09:44;0.30;;;0.20;;
12675;SDS011;63820;65.654;21.944;2023-03-03T01:12:28;0.20;;;0.20;;
12675;SDS011;63820;65.654;21.944;2023-03-03T01:15:13;0.23;;;0.23;;
12675;SDS011;63820;65.654;21.944;2023-03-03T01:17:58;0.27;;;0.27;;
12675;SDS011;63820;65.654;21.944;2023-03-03T01:20:42;0.33;;;0.30;;
12675;SDS011;63820;65.654;21.944;2023-03-03T01:23:27;0.23;;;0.20;;
12675;SDS011;63820;65.654;21.944;2023-03-03T01:26:11;0.20;;;0.20;;
12675;SDS011;63820;65.654;21.944;2023-03-03T01:28:56;0.20;;;0.20;;
12675;SDS011;63820;65.654;21.944;2023-03-03T01:31:40;0.20;;;0.20;;
12675;SDS011;63820;65.654;21.944;2023-03-03T01:34:24;0.30;;;0.30;;
12675;SDS011;63820;65.654;21.944;2023-03-03T01:37:08;0.20;;;0.20;;
12675;SDS011;63820;65.654;21.944;2023-03-03T01:39:53;0.20;;;0.20;;
12675;SDS011;63820;65.654;21.944;2023-03-03T01:42:38;0.63;;;0.30;;
12675;SDS011;63820;65.654;21.944;2023-03-03T01:45:23;0.20;;;0.20;;
12675;SDS011;63820;65.654;21.944;2023-03-03T01:48:15;0.20;;;0.20;;
12675;SDS011;63820;65.654;21.944;2023-03-03T01:54:05;0.30;;;0.30;;
12675;SDS011;63820;65.654;21.944;2023-03-03T01:56:58;1.03;;;0.33;;
12675;SDS011;63820;65.654;21.944;2023-03-03T01:59:46;1.13;;;0.30;;
12675;SDS011;63820;65.654;21.944;2023-03-03T02:02:33;0.67;;;0.40;;
12675;SDS011;63820;65.654;21.944;2023-03-03T02:05:18;0.30;;;0.30;;
12675;SDS011;63820;65.654;21.944;2023-03-03T02:08:03;0.83;;;0.20;;
12675;SDS011;63820;65.654;21.944;2023-03-03T02:10:47;0.30;;;0.30;;
12675;SDS011;63820;65.654;21.944;2023-03-03T02:13:32;0.30;;;0.30;;
12675;SDS011;63820;65.654;21.944;2023-03-03T02:16:16;0.20;;;0.20;;
12675;SDS011;63820;65.654;21.944;2023-03-03T02:19:00;1.47;;;0.30;;
12675;SDS011;63820;65.654;21.944;2023-03-03T02:21:45;0.73;;;0.20;;
12675;SDS011;63820;65.654;21.944;2023-03-03T02:27:22;0.80;;;0.30;;
12675;SDS011;63820;65.654;21.944;2023-03-03T02:30:09;0.30;;;0.20;;
12675;SDS011;63820;65.654;21.944;2023-03-03T02:33:00;0.20;;;0.20;;
12675;SDS011;63820;65.654;21.944;2023-03-03T02:35:45;0.80;;;0.37;;
12675;SDS011;63820;65.654;21.944;2023-03-03T02:38:36;0.30;;;0.30;;
12675;SDS011;63820;65.654;21.944;2023-03-03T02:41:39;0.30;;;0.30;;
12675;SDS011;63820;65.654;21.944;2023-03-03T02:44:44;0.30;;;0.30;;
12675;SDS011;63820;65.654;21.944;2023-03-03T02:47:28;0.20;;;0.20;;
12675;SDS011;63820;65.654;21.944;2023-03-03T02:50:12;0.70;;;0.30;;
12675;SDS011;63820;65.654;21.944;2023-03-03T02:52:57;0.20;;;0.20;;
12675;SDS011;63820;65.654;21.944;2023-03-03T02:55:41;1.60;;;0.50;;
12675;SDS011;63820;65.654;21.944;2023-03-03T02:58:25;1.37;;;0.30;;
12675;SDS011;63820;65.654;21.944;2023-03-03T03:01:09;0.33;;;0.20;;
12675;SDS011;63820;65.654;21.944;2023-03-03T03:03:54;1.13;;;0.30;;
12675;SDS011;63820;65.654;21.944;2023-03-03T03:06:38;0.20;;;0.20;;
12675;SDS011;63820;65.654;21.944;2023-03-03T03:09:23;1.27;;;0.40;;
12675;SDS011;63820;65.654;21.944;2023-03-03T03:12:08;0.97;;;0.40;;
12675;SDS011;63820;65.654;21.944;2023-03-03T03:14:52;0.43;;;0.30;;
12675;SDS011;63820;65.654;21.944;2023-03-03T03:17:37;1.20;;;0.40;;
12675;SDS011;63820;65.654;21.944;2023-03-03T03:20:21;1.13;;;0.50;;
12675;SDS011;63820;65.654;21.944;2023-03-03T03:23:06;0.30;;;0.30;;
12675;SDS011;63820;65.654;21.944;2023-03-03T03:25:51;1.87;;;0.30;;
12675;SDS011;63820;65.654;21.944;2023-03-03T03:28:35;0.87;;;0.30;;
12675;SDS011;63820;65.654;21.944;2023-03-03T03:31:19;0.90;;;0.30;;
12675;SDS011;63820;65.654;21.944;2023-03-03T03:34:04;1.60;;;0.20;;
12675;SDS011;63820;65.654;21.944;2023-03-03T03:36:49;0.30;;;0.30;;
12675;SDS011;63820;65.654;21.944;2023-03-03T03:39:33;1.50;;;0.37;;
12675;SDS011;63820;65.654;21.944;2023-03-03T03:42:17;0.27;;;0.20;;
12675;SDS011;63820;65.654;21.944;2023-03-03T03:45:01;0.40;;;0.40;;
12675;SDS011;63820;65.654;21.944;2023-03-03T03:47:45;0.97;;;0.37;;
12675;SDS011;63820;65.654;21.944;2023-03-03T03:50:30;0.30;;;0.30;;
12675;SDS011;63820;65.654;21.944;2023-03-03T03:53:15;1.07;;;0.30;;
12675;SDS011;63820;65.654;21.944;2023-03-03T03:56:00;0.30;;;0.30;;
12675;SDS011;63820;65.654;21.944;2023-03-03T03:58:44;0.37;;;0.33;;
12675;SDS011;63820;65.654;21.944;2023-03-03T04:01:28;0.30;;;0.30;;
12675;SDS011;63820;65.654;21.944;2023-03-03T04:04:12;0.30;;;0.30;;
12675;SDS011;63820;65.654;21.944;2023-03-03T04:06:57;1.90;;;0.30;;
12675;SDS011;63820;65.654;21.944;2023-03-03T04:09:42;0.30;;;0.30;;
12675;SDS011;63820;65.654;21.944;2023-03-03T04:12:26;0.40;;;0.40;;
12675;SDS011;63820;65.654;21.944;2023-03-03T04:15:11;0.57;;;0.40;;
12675;SDS011;63820;65.654;21.944;2023-03-03T04:17:56;0.60;;;0.30;;
12675;SDS011;63820;65.654;21.944;2023-03-03T04:20:41;0.30;;;0.30;;
12675;SDS011;63820;65.654;21.944;2023-03-03T04:23:25;0.50;;;0.30;;
12675;SDS011;63820;65.654;21.944;2023-03-03T04:26:09;0.87;;;0.40;;
12675;SDS011;63820;65.654;21.944;2023-03-03T04:28:53;1.10;;;0.30;;
12675;SDS011;63820;65.654;21.944;2023-03-03T04:31:37;0.53;;;0.50;;
12675;SDS011;63820;65.654;21.944;2023-03-03T04:34:21;0.60;;;0.30;;
12675;SDS011;63820;65.654;21.944;2023-03-03T04:37:06;0.30;;;0.30;;
12675;SDS011;63820;65.654;21.944;2023-03-03T04:39:50;0.20;;;0.20;;
12675;SDS011;63820;65.654;21.944;2023-03-03T04:42:34;0.57;;;0.30;;
12675;SDS011;63820;65.654;21.944;2023-03-03T04:45:18;1.23;;;0.40;;
12675;SDS011;63820;65.654;21.944;2023-03-03T04:48:03;0.50;;;0.30;;
12675;SDS011;63820;65.654;21.944;2023-03-03T04:50:48;1.27;;;0.40;;
12675;SDS011;63820;65.654;21.944;2023-03-03T04:53:32;0.43;;;0.30;;
12675;SDS011;63820;65.654;21.944;2023-03-03T04:56:15;0.93;;;0.40;;
12675;SDS011;63820;65.654;21.944;2023-03-03T04:58:59;1.57;;;0.50;;
12675;SDS011;63820;65.654;21.944;2023-03-03T05:01:43;0.67;;;0.20;;
12675;SDS011;63820;65.654;21.944;2023-03-03T05:04:29;0.27;;;0.20;;
12675;SDS011;63820;65.654;21.944;2023-03-03T05:07:13;1.03;;;0.30;;
12675;SDS011;63820;65.654;21.944;2023-03-03T05:09:57;0.30;;;0.30;;
12675;SDS011;63820;65.654;21.944;2023-03-03T05:12:42;0.30;;;0.30;;
12675;SDS011;63820;65.654;21.944;2023-03-03T05:15:26;0.40;;;0.30;;
12675;SDS011;63820;65.654;21.944;2023-03-03T05:18:11;0.23;;;0.23;;
12675;SDS011;63820;65.654;21.944;2023-03-03T05:20:55;1.17;;;0.40;;
12675;SDS011;63820;65.654;21.944;2023-03-03T05:23:40;0.93;;;0.30;;
12675;SDS011;63820;65.654;21.944;2023-03-03T05:26:23;0.30;;;0.30;;
12675;SDS011;63820;65.654;21.944;2023-03-03T05:29:08;1.47;;;0.30;;
12675;SDS011;63820;65.654;21.944;2023-03-03T05:31:52;0.30;;;0.30;;
12675;SDS011;63820;65.654;21.944;2023-03-03T05:34:37;1.30;;;0.50;;
12675;SDS011;63820;65.654;21.944;2023-03-03T05:37:21;0.47;;;0.40;;
12675;SDS011;63820;65.654;21.944;2023-03-03T05:40:07;0.43;;;0.30;;
12675;SDS011;63820;65.654;21.944;2023-03-03T05:42:52;4.43;;;0.50;;
12675;SDS011;63820;65.654;21.944;2023-03-03T05:45:36;1.33;;;0.37;;
12675;SDS011;63820;65.654;21.944;2023-03-03T05:48:21;0.47;;;0.30;;
12675;SDS011;63820;65.654;21.944;2023-03-03T05:51:05;0.93;;;0.50;;
12675;SDS011;63820;65.654;21.944;2023-03-03T05:53:49;0.30;;;0.30;;
12675;SDS011;63820;65.654;21.944;2023-03-03T05:56:33;1.20;;;0.40;;
12675;SDS011;63820;65.654;21.944;2023-03-03T05:59:18;0.70;;;0.40;;
12675;SDS011;63820;65.654;21.944;2023-03-03T06:02:03;1.07;;;0.50;;
12675;SDS011;63820;65.654;21.944;2023-03-03T06:04:47;0.50;;;0.47;;
12675;SDS011;63820;65.654;21.944;2023-03-03T06:07:31;1.80;;;0.60;;
12675;SDS011;63820;65.654;21.944;2023-03-03T06:10:16;1.10;;;0.40;;
12675;SDS011;63820;65.654;21.944;2023-03-03T06:13:00;0.33;;;0.30;;
12675;SDS011;63820;65.654;21.944;2023-03-03T06:15:45;0.40;;;0.40;;
12675;SDS011;63820;65.654;21.944;2023-03-03T06:18:29;1.17;;;0.60;;
12675;SDS011;63820;65.654;21.944;2023-03-03T06:21:13;6.13;;;0.80;;
12675;SDS011;63820;65.654;21.944;2023-03-03T06:23:58;1.53;;;0.70;;
12675;SDS011;63820;65.654;21.944;2023-03-03T06:26:42;3.10;;;0.70;;
12675;SDS011;63820;65.654;21.944;2023-03-03T06:29:26;3.43;;;1.00;;
12675;SDS011;63820;65.654;21.944;2023-03-03T06:32:10;3.97;;;1.10;;
12675;SDS011;63820;65.654;21.944;2023-03-03T06:34:55;4.03;;;0.97;;
12675;SDS011;63820;65.654;21.944;2023-03-03T06:37:39;1.90;;;1.00;;
12675;SDS011;63820;65.654;21.944;2023-03-03T06:40:23;1.47;;;0.90;;
12675;SDS011;63820;65.654;21.944;2023-03-03T06:43:07;2.80;;;1.30;;
12675;SDS011;63820;65.654;21.944;2023-03-03T06:45:52;3.50;;;1.60;;
12675;SDS011;63820;65.654;21.944;2023-03-03T06:48:36;1.70;;;0.97;;
12675;SDS011;63820;65.654;21.944;2023-03-03T06:51:24;1.97;;;0.90;;
12675;SDS011;63820;65.654;21.944;2023-03-03T06:54:17;3.13;;;1.00;;
12675;SDS011;63820;65.654;21.944;2023-03-03T06:57:06;4.67;;;1.40;;
12675;SDS011;63820;65.654;21.944;2023-03-03T07:00:14;1.77;;;0.80;;
12675;SDS011;63820;65.654;21.944;2023-03-03T07:03:16;3.30;;;1.00;;
12675;SDS011;63820;65.654;21.944;2023-03-03T07:06:07;3.47;;;1.00;;
12675;SDS011;63820;65.654;21.944;2023-03-03T07:08:59;2.83;;;1.03;;
12675;SDS011;63820;65.654;21.944;2023-03-03T07:11:43;3.77;;;1.00;;
12675;SDS011;63820;65.654;21.944;2023-03-03T07:14:27;4.47;;;0.80;;
12675;SDS011;63820;65.654;21.944;2023-03-03T07:17:14;3.10;;;1.00;;
12675;SDS011;63820;65.654;21.944;2023-03-03T07:19:59;4.70;;;1.67;;
12675;SDS011;63820;65.654;21.944;2023-03-03T07:22:44;2.57;;;1.03;;
12675;SDS011;63820;65.654;21.944;2023-03-03T07:28:26;4.53;;;0.90;;
12675;SDS011;63820;65.654;21.944;2023-03-03T07:31:16;3.60;;;1.00;;
12675;SDS011;63820;65.654;21.944;2023-03-03T07:34:14;4.17;;;1.13;;
12675;SDS011;63820;65.654;21.944;2023-03-03T07:37:38;2.80;;;1.33;;
12675;SDS011;63820;65.654;21.944;2023-03-03T07:40:34;1.87;;;0.87;;
12675;SDS011;63820;65.654;21.944;2023-03-03T07:48:57;2.13;;;0.90;;
12675;SDS011;63820;65.654;21.944;2023-03-03T07:51:43;4.27;;;1.10;;
12675;SDS011;63820;65.654;21.944;2023-03-03T07:57:27;2.27;;;1.00;;
12675;SDS011;63820;65.654;21.944;2023-03-03T08:03:07;4.10;;;1.30;;
12675;SDS011;63820;65.654;21.944;2023-03-03T08:06:00;3.10;;;1.10;;
12675;SDS011;63820;65.654;21.944;2023-03-03T08:11:54;4.63;;;1.10;;
12675;SDS011;63820;65.654;21.944;2023-03-03T08:14:43;2.63;;;0.93;;
12675;SDS011;63820;65.654;21.944;2023-03-03T08:17:35;3.47;;;1.40;;
12675;SDS011;63820;65.654;21.944;2023-03-03T08:23:12;3.47;;;0.90;;
12675;SDS011;63820;65.654;21.944;2023-03-03T08:25:58;3.63;;;1.30;;
12675;SDS011;63820;65.654;21.944;2023-03-03T08:28:43;4.63;;;1.37;;
12675;SDS011;63820;65.654;21.944;2023-03-03T08:31:27;3.97;;;1.30;;
12675;SDS011;63820;65.654;21.944;2023-03-03T08:34:11;5.27;;;1.20;;
12675;SDS011;63820;65.654;21.944;2023-03-03T08:36:56;3.45;;;1.33;;
12675;SDS011;63820;65.654;21.944;2023-03-03T08:39:40;4.05;;;1.23;;
12675;SDS011;63820;65.654;21.944;2023-03-03T08:42:25;4.23;;;1.50;;
12675;SDS011;63820;65.654;21.944;2023-03-03T08:45:09;3.93;;;1.40;;
12675;SDS011;63820;65.654;21.944;2023-03-03T08:47:54;4.03;;;1.30;;
12675;SDS011;63820;65.654;21.944;2023-03-03T08:50:39;3.43;;;1.30;;
12675;SDS011;63820;65.654;21.944;2023-03-03T08:53:25;4.07;;;1.57;;
12675;SDS011;63820;65.654;21.944;2023-03-03T08:56:09;3.17;;;1.30;;
12675;SDS011;63820;65.654;21.944;2023-03-03T08:58:53;4.25;;;1.30;;
12675;SDS011;63820;65.654;21.944;2023-03-03T09:01:37;6.43;;;1.98;;
12675;SDS011;63820;65.654;21.944;2023-03-03T09:04:21;5.65;;;1.52;;
12675;SDS011;63820;65.654;21.944;2023-03-03T09:07:05;5.38;;;1.60;;
12675;SDS011;63820;65.654;21.944;2023-03-03T09:09:49;4.45;;;1.42;;
12675;SDS011;63820;65.654;21.944;2023-03-03T09:12:37;4.25;;;1.58;;
12675;SDS011;63820;65.654;21.944;2023-03-03T09:15:28;3.88;;;1.50;;
12675;SDS011;63820;65.654;21.944;2023-03-03T09:18:25;4.32;;;1.50;;
12675;SDS011;63820;65.654;21.944;2023-03-03T09:21:22;4.90;;;1.58;;
12675;SDS011;63820;65.654;21.944;2023-03-03T09:24:14;3.78;;;1.42;;
12675;SDS011;63820;65.654;21.944;2023-03-03T09:27:18;4.07;;;1.52;;
12675;SDS011;63820;65.654;21.944;2023-03-03T09:30:11;4.82;;;1.77;;
12675;SDS011;63820;65.654;21.944;2023-03-03T09:33:21;4.65;;;1.70;;
12675;SDS011;63820;65.654;21.944;2023-03-03T09:47:43;4.03;;;1.63;;
12675;SDS011;63820;65.654;21.944;2023-03-03T09:51:07;3.83;;;1.80;;
12675;SDS011;63820;65.654;21.944;2023-03-03T09:57:07;5.67;;;1.93;;
12675;SDS011;63820;65.654;21.944;2023-03-03T10:02:57;4.10;;;1.60;;
12675;SDS011;63820;65.654;21.944;2023-03-03T10:12:23;3.63;;;1.40;;
12675;SDS011;63820;65.654;21.944;2023-03-03T10:21:39;3.37;;;1.40;;
12675;SDS011;63820;65.654;21.944;2023-03-03T10:39:27;3.60;;;1.33;;
12675;SDS011;63820;65.654;21.944;2023-03-03T10:54:56;3.97;;;1.30;;
12675;SDS011;63820;65.654;21.944;2023-03-03T11:01:10;9.33;;;4.57;;
12675;SDS011;63820;65.654;21.944;2023-03-03T11:04:20;4.13;;;1.37;;
12675;SDS011;63820;65.654;21.944;2023-03-03T11:07:34;4.13;;;1.53;;
12675;SDS011;63820;65.654;21.944;2023-03-03T11:10:44;3.80;;;1.40;;
12675;SDS011;63820;65.654;21.944;2023-03-03T11:20:02;4.60;;;1.50;;
12675;SDS011;63820;65.654;21.944;2023-03-03T11:23:01;3.77;;;1.13;;
12675;SDS011;63820;65.654;21.944;2023-03-03T11:41:19;10.07;;;1.70;;
12675;SDS011;63820;65.654;21.944;2023-03-03T11:50:30;5.17;;;1.30;;
12675;SDS011;63820;65.654;21.944;2023-03-03T11:56:33;5.37;;;1.37;;
12675;SDS011;63820;65.654;21.944;2023-03-03T11:59:30;4.40;;;1.13;;
12675;SDS011;63820;65.654;21.944;2023-03-03T12:14:56;5.17;;;1.43;;
12675;SDS011;63820;65.654;21.944;2023-03-03T12:24:12;4.90;;;1.40;;
12675;SDS011;63820;65.654;21.944;2023-03-03T12:27:02;4.23;;;1.00;;
12675;SDS011;63820;65.654;21.944;2023-03-03T12:36:21;2.43;;;1.07;;
12675;SDS011;63820;65.654;21.944;2023-03-03T12:42:32;2.50;;;1.10;;
12675;SDS011;63820;65.654;21.944;2023-03-03T12:48:49;3.77;;;1.47;;
12675;SDS011;63820;65.654;21.944;2023-03-03T13:10:10;6.77;;;1.53;;
12675;SDS011;63820;65.654;21.944;2023-03-03T13:13:26;3.30;;;1.20;;
12675;SDS011;63820;65.654;21.944;2023-03-03T13:16:27;4.63;;;1.13;;
12675;SDS011;63820;65.654;21.944;2023-03-03T13:19:17;5.20;;;1.23;;
12675;SDS011;63820;65.654;21.944;2023-03-03T13:22:17;3.47;;;1.50;;
12675;SDS011;63820;65.654;21.944;2023-03-03T13:25:19;4.30;;;1.37;;
12675;SDS011;63820;65.654;21.944;2023-03-03T13:31:19;4.00;;;1.17;;
12675;SDS011;63820;65.654;21.944;2023-03-03T13:34:07;4.17;;;1.10;;
12675;SDS011;63820;65.654;21.944;2023-03-03T13:37:35;4.93;;;1.10;;
12675;SDS011;63820;65.654;21.944;2023-03-03T13:40:25;5.37;;;1.00;;
12675;SDS011;63820;65.654;21.944;2023-03-03T13:43:48;4.23;;;1.30;;
12675;SDS011;63820;65.654;21.944;2023-03-03T13:59:29;4.60;;;1.50;;
12675;SDS011;63820;65.654;21.944;2023-03-03T14:05:56;5.50;;;1.30;;
12675;SDS011;63820;65.654;21.944;2023-03-03T14:08:54;5.97;;;1.13;;
12675;SDS011;63820;65.654;21.944;2023-03-03T14:17:31;5.80;;;1.40;;
12675;SDS011;63820;65.654;21.944;2023-03-03T14:20:42;2.93;;;1.10;;
12675;SDS011;63820;65.654;21.944;2023-03-03T14:26:51;6.90;;;1.43;;
12675;SDS011;63820;65.654;21.944;2023-03-03T14:29:38;4.00;;;1.00;;
12675;SDS011;63820;65.654;21.944;2023-03-03T14:32:23;3.33;;;1.20;;
12675;SDS011;63820;65.654;21.944;2023-03-03T14:35:14;2.37;;;0.90;;
12675;SDS011;63820;65.654;21.944;2023-03-03T14:43:58;4.47;;;1.43;;
12675;SDS011;63820;65.654;21.944;2023-03-03T14:46:44;5.13;;;1.17;;
12675;SDS011;63820;65.654;21.944;2023-03-03T14:49:29;3.57;;;1.07;;
12675;SDS011;63820;65.654;21.944;2023-03-03T14:55:01;4.70;;;1.20;;
12675;SDS011;63820;65.654;21.944;2023-03-03T15:01:15;6.73;;;1.03;;
12675;SDS011;63820;65.654;21.944;2023-03-03T15:07:03;5.07;;;1.20;;
12675;SDS011;63820;65.654;21.944;2023-03-03T15:10:34;2.70;;;1.00;;
12675;SDS011;63820;65.654;21.944;2023-03-03T15:21:49;3.33;;;1.10;;
12675;SDS011;63820;65.654;21.944;2023-03-03T15:24:50;1.83;;;0.77;;
12675;SDS011;63820;65.654;21.944;2023-03-03T15:31:28;2.97;;;1.27;;
12675;SDS011;63820;65.654;21.944;2023-03-03T15:40:41;1.77;;;0.80;;
12675;SDS011;63820;65.654;21.944;2023-03-03T15:43:35;2.60;;;0.80;;
12675;SDS011;63820;65.654;21.944;2023-03-03T15:46:35;3.27;;;1.13;;
12675;SDS011;63820;65.654;21.944;2023-03-03T15:49:29;2.30;;;0.60;;
12675;SDS011;63820;65.654;21.944;2023-03-03T15:52:31;2.67;;;0.80;;
12675;SDS011;63820;65.654;21.944;2023-03-03T16:04:17;2.30;;;0.87;;
12675;SDS011;63820;65.654;21.944;2023-03-03T16:12:57;2.27;;;0.80;;
12675;SDS011;63820;65.654;21.944;2023-03-03T16:31:20;1.57;;;0.40;;
12675;SDS011;63820;65.654;21.944;2023-03-03T16:34:14;2.97;;;0.70;;
12675;SDS011;63820;65.654;21.944;2023-03-03T16:37:11;1.27;;;0.70;;
12675;SDS011;63820;65.654;21.944;2023-03-03T16:40:45;4.40;;;0.60;;
12675;SDS011;63820;65.654;21.944;2023-03-03T16:43:18;1.83;;;0.60;;
12675;SDS011;63820;65.654;21.944;2023-03-03T16:54:58;3.00;;;0.93;;
12675;SDS011;63820;65.654;21.944;2023-03-03T16:58:01;2.40;;;0.87;;
12675;SDS011;63820;65.654;21.944;2023-03-03T17:07:38;3.00;;;0.93;;
12675;SDS011;63820;65.654;21.944;2023-03-03T17:10:26;3.23;;;1.10;;
12675;SDS011;63820;65.654;21.944;2023-03-03T17:19:24;1.37;;;0.50;;
12675;SDS011;63820;65.654;21.944;2023-03-03T17:22:36;2.13;;;0.70;;
12675;SDS011;63820;65.654;21.944;2023-03-03T17:25:36;3.80;;;0.70;;
12675;SDS011;63820;65.654;21.944;2023-03-03T17:31:54;5.63;;;3.63;;
12675;SDS011;63820;65.654;21.944;2023-03-03T17:38:15;1.63;;;0.47;;
12675;SDS011;63820;65.654;21.944;2023-03-03T17:44:48;1.60;;;0.90;;
12675;SDS011;63820;65.654;21.944;2023-03-03T17:59:11;1.03;;;0.80;;
12675;SDS011;63820;65.654;21.944;2023-03-03T18:20:49;3.97;;;2.13;;
12675;SDS011;63820;65.654;21.944;2023-03-03T18:23:37;3.77;;;2.50;;
12675;SDS011;63820;65.654;21.944;2023-03-03T18:26:37;2.87;;;1.47;;
12675;SDS011;63820;65.654;21.944;2023-03-03T18:29:24;3.60;;;1.07;;
12675;SDS011;63820;65.654;21.944;2023-03-03T18:32:18;1.43;;;1.00;;
12675;SDS011;63820;65.654;21.944;2023-03-03T18:38:25;1.83;;;0.70;;
12675;SDS011;63820;65.654;21.944;2023-03-03T18:41:28;2.53;;;0.60;;
12675;SDS011;63820;65.654;21.944;2023-03-03T18:44:27;1.73;;;0.60;;
12675;SDS011;63820;65.654;21.944;2023-03-03T18:47:14;1.63;;;0.50;;
12675;SDS011;63820;65.654;21.944;2023-03-03T18:50:15;1.63;;;0.60;;
12675;SDS011;63820;65.654;21.944;2023-03-03T18:56:42;1.30;;;0.60;;
12675;SDS011;63820;65.654;21.944;2023-03-03T19:02:50;4.43;;;0.50;;
12675;SDS011;63820;65.654;21.944;2023-03-03T19:05:45;1.03;;;0.40;;
12675;SDS011;63820;65.654;21.944;2023-03-03T19:11:49;1.93;;;1.00;;
12675;SDS011;63820;65.654;21.944;2023-03-03T19:14:38;0.73;;;0.40;;
12675;SDS011;63820;65.654;21.944;2023-03-03T19:20:11;0.60;;;0.60;;
12675;SDS011;63820;65.654;21.944;2023-03-03T19:23:02;0.70;;;0.33;;
12675;SDS011;63820;65.654;21.944;2023-03-03T19:29:44;1.23;;;0.30;;
12675;SDS011;63820;65.654;21.944;2023-03-03T19:35:36;0.77;;;0.40;;
12675;SDS011;63820;65.654;21.944;2023-03-03T19:51:26;2.10;;;0.40;;
12675;SDS011;63820;65.654;21.944;2023-03-03T20:03:59;0.60;;;0.50;;
12675;SDS011;63820;65.654;21.944;2023-03-03T20:16:31;0.30;;;0.30;;
12675;SDS011;63820;65.654;21.944;2023-03-03T20:22:39;0.30;;;0.30;;
12675;SDS011;63820;65.654;21.944;2023-03-03T20:25:34;1.37;;;0.40;;
12675;SDS011;63820;65.654;21.944;2023-03-03T20:43:32;0.83;;;0.33;;
12675;SDS011;63820;65.654;21.944;2023-03-03T20:49:38;0.73;;;0.30;;
12675;SDS011;63820;65.654;21.944;2023-03-03T20:55:34;0.77;;;0.50;;
12675;SDS011;63820;65.654;21.944;2023-03-03T21:04:36;1.10;;;0.50;;
12675;SDS011;63820;65.654;21.944;2023-03-03T21:07:22;0.50;;;0.40;;
12675;SDS011;63820;65.654;21.944;2023-03-03T21:10:16;1.00;;;0.40;;
12675;SDS011;63820;65.654;21.944;2023-03-03T21:16:30;0.30;;;0.30;;
12675;SDS011;63820;65.654;21.944;2023-03-03T21:19:25;0.70;;;0.47;;
12675;SDS011;63820;65.654;21.944;2023-03-03T21:22:14;0.77;;;0.77;;
12675;SDS011;63820;65.654;21.944;2023-03-03T21:24:59;2.53;;;0.47;;
12675;SDS011;63820;65.654;21.944;2023-03-03T21:27:43;0.60;;;0.30;;
12675;SDS011;63820;65.654;21.944;2023-03-03T21:30:27;0.70;;;0.47;;
12675;SDS011;63820;65.654;21.944;2023-03-03T21:33:36;1.03;;;0.30;;
12675;SDS011;63820;65.654;21.944;2023-03-03T21:39:18;1.10;;;0.40;;
12675;SDS011;63820;65.654;21.944;2023-03-03T21:44:51;1.17;;;0.40;;
12675;SDS011;63820;65.654;21.944;2023-03-03T21:47:36;0.40;;;0.30;;
12675;SDS011;63820;65.654;21.944;2023-03-03T21:50:20;0.50;;;0.40;;
12675;SDS011;63820;65.654;21.944;2023-03-03T21:53:04;0.67;;;0.40;;
12675;SDS011;63820;65.654;21.944;2023-03-03T21:55:49;0.70;;;0.50;;
12675;SDS011;63820;65.654;21.944;2023-03-03T21:58:33;1.23;;;0.57;;
12675;SDS011;63820;65.654;21.944;2023-03-03T22:01:18;1.40;;;0.37;;
12675;SDS011;63820;65.654;21.944;2023-03-03T22:04:01;1.43;;;0.30;;
12675;SDS011;63820;65.654;21.944;2023-03-03T22:06:46;2.80;;;0.57;;
12675;SDS011;63820;65.654;21.944;2023-03-03T22:09:30;0.77;;;0.30;;
12675;SDS011;63820;65.654;21.944;2023-03-03T22:12:15;0.40;;;0.40;;
12675;SDS011;63820;65.654;21.944;2023-03-03T22:14:59;0.70;;;0.30;;
12675;SDS011;63820;65.654;21.944;2023-03-03T22:17:43;1.13;;;0.50;;
12675;SDS011;63820;65.654;21.944;2023-03-03T22:20:27;0.73;;;0.30;;
12675;SDS011;63820;65.654;21.944;2023-03-03T22:23:12;1.93;;;0.50;;
12675;SDS011;63820;65.654;21.944;2023-03-03T22:25:57;0.80;;;0.50;;
12675;SDS011;63820;65.654;21.944;2023-03-03T22:28:42;0.30;;;0.30;;
12675;SDS011;63820;65.654;21.944;2023-03-03T22:31:26;1.00;;;0.40;;
12675;SDS011;63820;65.654;21.944;2023-03-03T22:34:10;0.90;;;0.30;;
12675;SDS011;63820;65.654;21.944;2023-03-03T22:36:55;0.40;;;0.30;;
12675;SDS011;63820;65.654;21.944;2023-03-03T22:39:39;0.37;;;0.30;;
12675;SDS011;63820;65.654;21.944;2023-03-03T22:42:23;0.73;;;0.30;;
12675;SDS011;63820;65.654;21.944;2023-03-03T22:45:08;0.60;;;0.40;;
12675;SDS011;63820;65.654;21.944;2023-03-03T22:47:52;0.67;;;0.50;;
12675;SDS011;63820;65.654;21.944;2023-03-03T22:50:37;1.37;;;0.60;;
12675;SDS011;63820;65.654;21.944;2023-03-03T22:53:22;1.77;;;0.60;;
12675;SDS011;63820;65.654;21.944;2023-03-03T22:56:07;1.43;;;0.40;;
12675;SDS011;63820;65.654;21.944;2023-03-03T22:58:52;0.90;;;0.60;;
12675;SDS011;63820;65.654;21.944;2023-03-03T23:01:36;1.37;;;0.50;;
12675;SDS011;63820;65.654;21.944;2023-03-03T23:04:21;2.00;;;0.40;;
12675;SDS011;63820;65.654;21.944;2023-03-03T23:07:05;3.80;;;0.70;;
12675;SDS011;63820;65.654;21.944;2023-03-03T23:09:49;2.00;;;0.50;;
12675;SDS011;63820;65.654;21.944;2023-03-03T23:12:33;1.60;;;0.40;;
12675;SDS011;63820;65.654;21.944;2023-03-03T23:15:18;3.60;;;0.80;;
12675;SDS011;63820;65.654;21.944;2023-03-03T23:18:03;1.57;;;0.50;;
12675;SDS011;63820;65.654;21.944;2023-03-03T23:20:47;1.03;;;0.30;;
12675;SDS011;63820;65.654;21.944;2023-03-03T23:23:32;0.87;;;0.40;;
12675;SDS011;63820;65.654;21.944;2023-03-03T23:26:16;2.10;;;0.60;;
12675;SDS011;63820;65.654;21.944;2023-03-03T23:29:00;2.93;;;0.63;;
12675;SDS011;63820;65.654;21.944;2023-03-03T23:31:45;1.23;;;0.40;;
12675;SDS011;63820;65.654;21.944;2023-03-03T23:34:29;1.07;;;0.40;;
12675;SDS011;63820;65.654;21.944;2023-03-03T23:37:14;3.90;;;0.67;;
12675;SDS011;63820;65.654;21.944;2023-03-03T23:39:58;1.53;;;0.40;;
12675;SDS011;63820;65.654;21.944;2023-03-03T23:42:42;2.10;;;0.57;;
12675;SDS011;63820;65.654;21.944;2023-03-03T23:45:27;3.87;;;0.53;;
12675;SDS011;63820;65.654;21.944;2023-03-03T23:48:11;0.57;;;0.50;;
12675;SDS011;63820;65.654;21.944;2023-03-03T23:50:56;2.60;;;0.53;;
12675;SDS011;63820;65.654;21.944;2023-03-03T23:53:40;0.53;;;0.40;;